Time;durP1;ratioP1;P1;durP2;ratioP2;P2;SDS_P1;SDS_P2;PMS_P1;PMS_P2;Temp;Humidity;BMP_temperature;BMP_pressure;BME280_temperature;BME280_humidity;BME280_pressure;Samples;Min_cycle;Max_cycle;Signal;HPM_P1;HPM_P2
2022/10/08 00:03:45;;;;;;;10.98;3.13;;;;;;;;;;8265719;28;20561;-62
2022/10/08 00:07:46;;;;;;;8.63;3.30;;;;;;;;;;8269645;28;20060;-62
2022/10/08 00:11:49;;;;;;;8.85;3.05;;;;;;;;;;8269522;28;20021;-62
2022/10/08 00:15:51;;;;;;;7.03;2.93;;;;;;;;;;8266419;28;20046;-62
2022/10/08 00:19:53;;;;;;;9.10;2.75;;;;;;;;;;8267406;28;20033;-62
2022/10/08 00:23:53;;;;;;;12.18;3.15;;;;;;;;;;8268747;28;20033;-62
2022/10/08 00:27:53;;;;;;;8.02;3.17;;;;;;;;;;8269385;28;20299;-62
2022/10/08 00:31:54;;;;;;;11.10;3.25;;;;;;;;;;8264737;28;20033;-62
2022/10/08 00:35:55;;;;;;;7.35;3.17;;;;;;;;;;8268672;28;20491;-62
2022/10/08 00:39:55;;;;;;;5.53;2.60;;;;;;;;;;8268079;28;20033;-62
2022/10/08 00:43:57;;;;;;;3.83;2.78;;;;;;;;;;8266338;28;20057;-62
2022/10/08 00:47:57;;;;;;;13.00;3.17;;;;;;;;;;8266647;28;20454;-62
2022/10/08 00:51:57;;;;;;;6.88;2.50;;;;;;;;;;8271303;28;20025;-62
2022/10/08 00:55:58;;;;;;;6.28;2.50;;;;;;;;;;8269813;28;20120;-62
2022/10/08 00:59:58;;;;;;;5.57;2.40;;;;;;;;;;8269057;28;20477;-62
2022/10/08 01:04:01;;;;;;;4.82;2.63;;;;;;;;;;8263544;28;20714;-62
2022/10/08 01:08:08;;;;;;;6.97;2.58;;;;;;;;;;8265827;28;20029;-62
2022/10/08 01:12:31;;;;;;;4.78;2.70;;;;;;;;;;8265329;28;20026;-62
2022/10/08 01:17:03;;;;;;;6.65;2.50;;;;;;;;;;8268549;28;20041;-62
2022/10/08 01:21:08;;;;;;;5.45;3.00;;;;;;;;;;8275146;28;20034;-62
2022/10/08 01:25:33;;;;;;;10.07;3.38;;;;;;;;;;8267792;28;20041;-64
2022/10/08 01:29:36;;;;;;;5.80;3.10;;;;;;;;;;8268356;28;20681;-62
2022/10/08 01:33:39;;;;;;;6.80;3.22;;;;;;;;;;8264376;28;20470;-62
2022/10/08 01:37:41;;;;;;;7.80;3.30;;;;;;;;;;8268251;28;20093;-62
2022/10/08 01:41:44;;;;;;;4.38;2.90;;;;;;;;;;8269852;28;20034;-62
2022/10/08 01:45:47;;;;;;;6.20;2.97;;;;;;;;;;8268678;28;20824;-62
2022/10/08 01:49:50;;;;;;;7.88;3.17;;;;;;;;;;8270738;28;20037;-62
2022/10/08 01:53:51;;;;;;;5.93;3.13;;;;;;;;;;8274914;28;20049;-62
2022/10/08 01:57:52;;;;;;;5.90;2.80;;;;;;;;;;8271170;28;20033;-62
2022/10/08 02:01:52;;;;;;;8.00;3.10;;;;;;;;;;8273780;28;20040;-62
2022/10/08 02:05:53;;;;;;;5.80;2.83;;;;;;;;;;8272618;28;20243;-62
2022/10/08 02:10:06;;;;;;;6.47;2.55;;;;;;;;;;8272353;28;20051;-62
2022/10/08 02:14:06;;;;;;;6.57;2.60;;;;;;;;;;8273214;28;20022;-62
2022/10/08 02:18:13;;;;;;;7.32;2.67;;;;;;;;;;8271073;28;20121;-62
2022/10/08 02:22:16;;;;;;;6.03;2.40;;;;;;;;;;8270904;28;20073;-62
2022/10/08 02:26:20;;;;;;;5.47;2.50;;;;;;;;;;8272052;28;20125;-63
2022/10/08 02:30:21;;;;;;;8.00;2.43;;;;;;;;;;8268663;28;20363;-62
2022/10/08 02:34:28;;;;;;;4.50;2.25;;;;;;;;;;8272800;28;20072;-62
2022/10/08 02:38:52;;;;;;;7.93;2.50;;;;;;;;;;8274173;28;20083;-62
2022/10/08 02:42:55;;;;;;;4.87;2.40;;;;;;;;;;8273817;28;20608;-63
2022/10/08 02:46:57;;;;;;;6.75;2.40;;;;;;;;;;8271531;28;20091;-62
2022/10/08 02:51:00;;;;;;;7.25;2.08;;;;;;;;;;8274868;28;20028;-62
2022/10/08 02:55:02;;;;;;;4.38;2.00;;;;;;;;;;8270591;28;20025;-62
2022/10/08 02:59:03;;;;;;;4.07;1.92;;;;;;;;;;8272745;28;20936;-62
2022/10/08 03:03:07;;;;;;;7.57;1.63;;;;;;;;;;8267579;28;20052;-62
2022/10/08 03:07:08;;;;;;;7.87;2.10;;;;;;;;;;8270869;28;20241;-62
2022/10/08 03:11:12;;;;;;;8.18;2.00;;;;;;;;;;8272477;28;20259;-62
2022/10/08 03:15:12;;;;;;;7.30;1.98;;;;;;;;;;8272953;28;20025;-62
2022/10/08 03:19:14;;;;;;;9.82;2.13;;;;;;;;;;8271135;28;20573;-62
2022/10/08 03:23:15;;;;;;;7.10;2.00;;;;;;;;;;8270521;28;20034;-62
2022/10/08 03:27:15;;;;;;;5.43;2.00;;;;;;;;;;8271241;28;20030;-62
2022/10/08 03:31:15;;;;;;;7.85;2.22;;;;;;;;;;8271858;28;20045;-62
2022/10/08 03:35:16;;;;;;;6.25;1.92;;;;;;;;;;8272741;28;20491;-62
2022/10/08 03:39:16;;;;;;;6.80;2.13;;;;;;;;;;8269987;28;20083;-62
2022/10/08 03:43:16;;;;;;;7.88;1.90;;;;;;;;;;8269786;28;20137;-62
2022/10/08 03:47:16;;;;;;;6.63;1.80;;;;;;;;;;8270044;28;20636;-62
2022/10/08 03:51:17;;;;;;;7.03;2.05;;;;;;;;;;8271808;28;20022;-63
2022/10/08 03:55:17;;;;;;;5.00;1.92;;;;;;;;;;8269232;28;20022;-62
2022/10/08 03:59:18;;;;;;;6.80;2.05;;;;;;;;;;8273372;28;20030;-62
2022/10/08 04:03:18;;;;;;;7.00;1.93;;;;;;;;;;8269129;28;20037;-63
2022/10/08 04:07:18;;;;;;;8.55;1.88;;;;;;;;;;8269761;28;20285;-62
2022/10/08 04:11:19;;;;;;;6.53;1.70;;;;;;;;;;8272171;28;20022;-62
2022/10/08 04:15:19;;;;;;;7.00;2.17;;;;;;;;;;8268685;28;20105;-62
2022/10/08 04:19:19;;;;;;;6.50;2.08;;;;;;;;;;8268884;28;20475;-62
2022/10/08 04:23:19;;;;;;;9.13;1.73;;;;;;;;;;8268168;28;20589;-62
2022/10/08 04:27:19;;;;;;;5.22;1.70;;;;;;;;;;8268841;28;20641;-62
2022/10/08 04:31:22;;;;;;;7.23;1.70;;;;;;;;;;8267775;28;20061;-62
2022/10/08 04:35:22;;;;;;;5.22;1.65;;;;;;;;;;8267260;28;20264;-62
2022/10/08 04:39:22;;;;;;;9.40;2.00;;;;;;;;;;8266430;28;20407;-62
2022/10/08 04:43:22;;;;;;;4.90;1.67;;;;;;;;;;8266211;28;20047;-62
2022/10/08 04:47:23;;;;;;;11.05;1.88;;;;;;;;;;8268508;28;20037;-61
2022/10/08 04:51:24;;;;;;;5.43;1.77;;;;;;;;;;8266952;28;20076;-62
2022/10/08 04:55:24;;;;;;;7.13;1.65;;;;;;;;;;8267822;28;20017;-63
2022/10/08 04:59:24;;;;;;;5.72;1.80;;;;;;;;;;8270889;28;20276;-62
2022/10/08 05:03:24;;;;;;;7.55;1.65;;;;;;;;;;8266842;28;20065;-63
2022/10/08 05:07:25;;;;;;;7.60;1.67;;;;;;;;;;8264947;28;20021;-63
2022/10/08 05:11:25;;;;;;;8.30;2.05;;;;;;;;;;8264074;28;20030;-62
2022/10/08 05:15:26;;;;;;;6.90;1.95;;;;;;;;;;8265412;28;20049;-62
2022/10/08 05:19:26;;;;;;;9.45;2.10;;;;;;;;;;8266115;28;20235;-62
2022/10/08 05:23:26;;;;;;;6.97;1.88;;;;;;;;;;8267707;28;20029;-62
2022/10/08 05:27:26;;;;;;;3.88;1.70;;;;;;;;;;8275098;28;20252;-62
2022/10/08 05:31:28;;;;;;;7.10;1.80;;;;;;;;;;8276281;28;20040;-62
2022/10/08 05:35:28;;;;;;;5.63;1.85;;;;;;;;;;8278403;28;20085;-62
2022/10/08 05:39:28;;;;;;;6.40;1.75;;;;;;;;;;8278747;28;20470;-62
2022/10/08 05:43:28;;;;;;;4.07;1.55;;;;;;;;;;8278969;28;20096;-62
2022/10/08 05:47:28;;;;;;;6.50;1.42;;;;;;;;;;8275847;28;20842;-62
2022/10/08 05:51:29;;;;;;;13.05;1.92;;;;;;;;;;8278311;28;20075;-62
2022/10/08 05:55:29;;;;;;;9.23;1.70;;;;;;;;;;8277275;28;20022;-62
2022/10/08 05:59:29;;;;;;;7.35;2.15;;;;;;;;;;8277980;28;20375;-62
2022/10/08 06:03:29;;;;;;;5.80;1.65;;;;;;;;;;8275464;28;20518;-62
2022/10/08 06:07:30;;;;;;;11.05;1.70;;;;;;;;;;8278944;28;20045;-63
2022/10/08 06:11:31;;;;;;;8.93;2.25;;;;;;;;;;8275912;28;20830;-62
2022/10/08 06:15:31;;;;;;;9.27;2.00;;;;;;;;;;8277767;28;20030;-62
2022/10/08 06:19:33;;;;;;;6.97;2.10;;;;;;;;;;8274255;28;20029;-62
2022/10/08 06:23:34;;;;;;;10.18;1.95;;;;;;;;;;8276962;28;20285;-62
2022/10/08 06:27:34;;;;;;;12.43;2.22;;;;;;;;;;8276134;28;20100;-62
2022/10/08 06:31:34;;;;;;;7.50;2.17;;;;;;;;;;8270718;28;20143;-62
2022/10/08 06:35:35;;;;;;;13.10;1.98;;;;;;;;;;8275787;28;20044;-63
2022/10/08 06:39:35;;;;;;;4.28;1.42;;;;;;;;;;8272361;28;20048;-63
2022/10/08 06:43:35;;;;;;;6.03;1.58;;;;;;;;;;8271718;28;20596;-63
2022/10/08 06:47:35;;;;;;;6.03;2.20;;;;;;;;;;8272943;28;20665;-63
2022/10/08 06:51:35;;;;;;;6.15;1.65;;;;;;;;;;8272172;28;20024;-63
2022/10/08 06:55:36;;;;;;;5.70;1.55;;;;;;;;;;8271862;28;20022;-64
2022/10/08 06:59:36;;;;;;;5.13;1.80;;;;;;;;;;8270692;28;20107;-63
2022/10/08 07:03:37;;;;;;;8.18;1.83;;;;;;;;;;8268915;28;20372;-63
2022/10/08 07:07:37;;;;;;;8.13;1.80;;;;;;;;;;8273360;28;20060;-63
2022/10/08 07:11:37;;;;;;;8.82;2.00;;;;;;;;;;8271446;28;20099;-63
2022/10/08 07:15:37;;;;;;;4.18;1.75;;;;;;;;;;8265573;28;20034;-63
2022/10/08 07:19:37;;;;;;;4.88;1.80;;;;;;;;;;8264684;28;20225;-64
2022/10/08 07:23:38;;;;;;;5.32;1.65;;;;;;;;;;8264230;28;21095;-64
2022/10/08 07:27:38;;;;;;;6.95;1.80;;;;;;;;;;8265594;28;20025;-63
2022/10/08 07:31:39;;;;;;;3.90;1.60;;;;;;;;;;8264815;28;20037;-63
2022/10/08 07:35:39;;;;;;;9.25;2.05;;;;;;;;;;8263462;28;20025;-63
2022/10/08 07:39:39;;;;;;;5.85;1.83;;;;;;;;;;8265580;28;20024;-63
2022/10/08 07:43:42;;;;;;;4.30;1.70;;;;;;;;;;8265030;28;20091;-63
2022/10/08 07:47:42;;;;;;;5.53;1.50;;;;;;;;;;8262392;28;20034;-64
2022/10/08 07:51:43;;;;;;;3.75;1.67;;;;;;;;;;8262552;28;20056;-64
2022/10/08 07:55:43;;;;;;;4.32;1.50;;;;;;;;;;8262662;28;20026;-64
2022/10/08 07:59:44;;;;;;;5.25;1.88;;;;;;;;;;8265228;28;21072;-64
2022/10/08 08:03:50;;;;;;;7.17;1.70;;;;;;;;;;8263067;28;20058;-63
2022/10/08 08:07:51;;;;;;;8.52;2.05;;;;;;;;;;8265143;28;20653;-63
2022/10/08 08:11:51;;;;;;;4.57;1.63;;;;;;;;;;8265639;28;20383;-64
2022/10/08 08:15:57;;;;;;;3.30;1.42;;;;;;;;;;8263887;28;20521;-63
2022/10/08 08:19:57;;;;;;;2.95;1.40;;;;;;;;;;8263657;28;20566;-64
2022/10/08 08:24:01;;;;;;;7.57;1.80;;;;;;;;;;8263796;28;20033;-63
2022/10/08 08:28:01;;;;;;;4.20;1.55;;;;;;;;;;8263590;28;20041;-63
2022/10/08 08:32:01;;;;;;;6.05;1.40;;;;;;;;;;8260704;28;20498;-64
2022/10/08 08:36:01;;;;;;;3.78;1.45;;;;;;;;;;8263815;28;20096;-63
2022/10/08 08:40:01;;;;;;;5.65;1.48;;;;;;;;;;8263219;28;20034;-64
2022/10/08 08:44:07;;;;;;;5.80;1.70;;;;;;;;;;8257899;28;20124;-64
2022/10/08 08:48:16;;;;;;;3.65;1.33;;;;;;;;;;8261796;28;20034;-63
2022/10/08 08:52:19;;;;;;;4.97;1.75;;;;;;;;;;8259834;28;20497;-63
2022/10/08 08:56:20;;;;;;;7.10;1.92;;;;;;;;;;8260448;28;20021;-63
2022/10/08 09:00:22;;;;;;;4.38;1.52;;;;;;;;;;8261451;28;20533;-63
2022/10/08 09:04:40;;;;;;;4.72;1.30;;;;;;;;;;8259694;28;20166;-63
2022/10/08 09:08:52;;;;;;;5.68;1.40;;;;;;;;;;8260671;28;20552;-63
2022/10/08 09:12:52;;;;;;;6.72;1.48;;;;;;;;;;8260549;28;20087;-63
2022/10/08 09:16:54;;;;;;;6.43;1.30;;;;;;;;;;8260061;28;20562;-62
2022/10/08 09:20:55;;;;;;;4.05;1.17;;;;;;;;;;8257428;28;20388;-62
2022/10/08 09:24:57;;;;;;;7.80;1.35;;;;;;;;;;8259054;28;20488;-63
2022/10/08 09:28:59;;;;;;;3.50;1.17;;;;;;;;;;8260017;28;20366;-63
2022/10/08 09:33:02;;;;;;;4.75;1.25;;;;;;;;;;8258952;28;20188;-63
2022/10/08 09:37:03;;;;;;;2.63;1.05;;;;;;;;;;8262309;28;20569;-63
2022/10/08 09:41:06;;;;;;;3.50;1.20;;;;;;;;;;8262358;28;20056;-63
2022/10/08 09:45:25;;;;;;;5.28;1.65;;;;;;;;;;8261170;28;20033;-63
2022/10/08 09:49:26;;;;;;;5.32;1.50;;;;;;;;;;8259746;28;20426;-62
2022/10/08 09:53:32;;;;;;;7.85;1.77;;;;;;;;;;8261116;28;20021;-63
2022/10/08 09:57:34;;;;;;;3.63;1.10;;;;;;;;;;8265934;28;20523;-63
2022/10/08 10:01:43;;;;;;;4.22;1.42;;;;;;;;;;8261841;28;20038;-63
2022/10/08 10:05:49;;;;;;;5.50;1.50;;;;;;;;;;8261843;28;20501;-63
2022/10/08 10:09:54;;;;;;;2.72;1.20;;;;;;;;;;8264219;28;20497;-63
2022/10/08 10:13:55;;;;;;;4.78;1.30;;;;;;;;;;8264594;28;20758;-63
2022/10/08 10:18:17;;;;;;;3.28;1.55;;;;;;;;;;8264640;28;20038;-62
2022/10/08 10:22:20;;;;;;;3.95;1.20;;;;;;;;;;8263865;28;20034;-63
2022/10/08 10:26:25;;;;;;;5.55;1.40;;;;;;;;;;8262907;28;20119;-63
2022/10/08 10:30:27;;;;;;;4.78;1.50;;;;;;;;;;8262544;28;20041;-63
2022/10/08 10:34:28;;;;;;;5.10;1.30;;;;;;;;;;8265073;28;20124;-63
2022/10/08 10:38:29;;;;;;;3.58;1.05;;;;;;;;;;8264645;28;20058;-63
2022/10/08 10:42:38;;;;;;;4.90;1.65;;;;;;;;;;8265532;28;20135;-64
2022/10/08 10:46:40;;;;;;;3.47;1.38;;;;;;;;;;8264664;28;20296;-63
2022/10/08 10:50:51;;;;;;;4.28;1.20;;;;;;;;;;8263748;28;20449;-63
2022/10/08 10:55:00;;;;;;;2.95;1.63;;;;;;;;;;8263372;28;20441;-63
2022/10/08 10:59:03;;;;;;;2.70;1.20;;;;;;;;;;8264661;28;20144;-62
2022/10/08 11:03:09;;;;;;;4.05;1.20;;;;;;;;;;8263551;28;20122;-62
2022/10/08 11:07:30;;;;;;;4.53;1.30;;;;;;;;;;8262608;28;20034;-62
2022/10/08 11:11:30;;;;;;;4.50;1.38;;;;;;;;;;8263131;28;20144;-62
2022/10/08 11:15:45;;;;;;;4.07;1.38;;;;;;;;;;8263517;28;20526;-63
2022/10/08 11:19:57;;;;;;;5.93;1.80;;;;;;;;;;8267821;28;20033;-63
2022/10/08 11:24:06;;;;;;;4.10;1.27;;;;;;;;;;8263488;28;20406;-63
2022/10/08 11:28:10;;;;;;;3.63;1.20;;;;;;;;;;8263016;28;20030;-63
2022/10/08 11:32:12;;;;;;;3.17;1.52;;;;;;;;;;8260961;28;20135;-62
2022/10/08 11:36:12;;;;;;;3.08;1.23;;;;;;;;;;8262767;28;20032;-63
2022/10/08 11:40:32;;;;;;;13.07;2.03;;;;;;;;;;8260930;28;20030;-63
2022/10/08 11:44:32;;;;;;;4.82;1.33;;;;;;;;;;8261432;28;20026;-63
2022/10/08 11:48:34;;;;;;;2.65;1.17;;;;;;;;;;8261196;28;20560;-63
2022/10/08 11:52:34;;;;;;;4.50;1.30;;;;;;;;;;8261703;28;20482;-63
2022/10/08 11:56:36;;;;;;;3.53;1.30;;;;;;;;;;8262018;28;20101;-63
2022/10/08 12:00:44;;;;;;;2.63;1.17;;;;;;;;;;8260967;28;20261;-64
2022/10/08 12:04:46;;;;;;;4.32;1.63;;;;;;;;;;8261289;28;20137;-64
2022/10/08 12:08:56;;;;;;;6.05;1.80;;;;;;;;;;8260411;28;20628;-65
2022/10/08 12:13:00;;;;;;;6.47;2.35;;;;;;;;;;8259227;28;21492;-64
2022/10/08 12:17:03;;;;;;;2.38;1.30;;;;;;;;;;8260489;28;20034;-63
2022/10/08 12:21:16;;;;;;;8.15;1.58;;;;;;;;;;8261448;28;20436;-63
2022/10/08 12:25:48;;;;;;;4.40;1.67;;;;;;;;;;8261145;28;20036;-63
2022/10/08 12:29:55;;;;;;;4.85;1.48;;;;;;;;;;8260492;28;20037;-63
2022/10/08 12:33:59;;;;;;;4.07;1.48;;;;;;;;;;8259492;28;20454;-63
2022/10/08 12:38:15;;;;;;;4.57;1.77;;;;;;;;;;8260603;28;20028;-63
2022/10/08 12:42:23;;;;;;;6.95;1.88;;;;;;;;;;8258600;28;20033;-63
2022/10/08 12:46:23;;;;;;;5.93;1.80;;;;;;;;;;8259910;28;20092;-63
2022/10/08 12:50:37;;;;;;;6.60;1.83;;;;;;;;;;8258644;28;20038;-63
2022/10/08 12:54:38;;;;;;;5.20;1.45;;;;;;;;;;8258908;28;20616;-62
2022/10/08 12:58:42;;;;;;;4.93;1.80;;;;;;;;;;8259704;28;20056;-63
2022/10/08 13:02:42;;;;;;;3.90;1.40;;;;;;;;;;8258988;28;20045;-64
2022/10/08 13:06:42;;;;;;;5.95;1.42;;;;;;;;;;8258115;28;20622;-63
2022/10/08 13:10:42;;;;;;;5.90;1.48;;;;;;;;;;8260495;28;20068;-63
2022/10/08 13:14:43;;;;;;;4.80;1.75;;;;;;;;;;8258789;28;20038;-64
2022/10/08 13:18:47;;;;;;;5.18;1.58;;;;;;;;;;8257765;28;20500;-63
2022/10/08 13:22:48;;;;;;;6.22;1.83;;;;;;;;;;8258319;28;20294;-64
2022/10/08 13:26:50;;;;;;;7.97;1.95;;;;;;;;;;8258666;28;20034;-63
2022/10/08 13:30:54;;;;;;;3.78;1.67;;;;;;;;;;8260128;28;20943;-64
2022/10/08 13:34:57;;;;;;;5.57;1.60;;;;;;;;;;8259890;28;20144;-63
2022/10/08 13:38:57;;;;;;;4.00;1.65;;;;;;;;;;8259573;28;20116;-63
2022/10/08 13:42:58;;;;;;;3.70;1.50;;;;;;;;;;8260986;28;20088;-63
2022/10/08 13:46:58;;;;;;;3.00;1.63;;;;;;;;;;8264733;28;20320;-63
2022/10/08 13:50:59;;;;;;;5.25;1.60;;;;;;;;;;8265912;28;20927;-63
2022/10/08 13:55:00;;;;;;;4.00;1.40;;;;;;;;;;8264069;28;20119;-63
2022/10/08 13:59:00;;;;;;;8.35;1.88;;;;;;;;;;8264558;28;20025;-63
2022/10/08 14:03:01;;;;;;;3.25;1.30;;;;;;;;;;8265246;28;20387;-63
2022/10/08 14:07:01;;;;;;;2.77;1.40;;;;;;;;;;8264170;28;20037;-64
2022/10/08 14:11:01;;;;;;;3.53;1.40;;;;;;;;;;8264500;28;20409;-64
2022/10/08 14:15:02;;;;;;;5.23;1.37;;;;;;;;;;8268138;28;20049;-63
2022/10/08 14:19:02;;;;;;;2.17;1.33;;;;;;;;;;8266306;28;20338;-63
2022/10/08 14:23:02;;;;;;;2.75;1.30;;;;;;;;;;8265629;28;20486;-62
2022/10/08 14:27:02;;;;;;;5.93;1.80;;;;;;;;;;8271976;28;20033;-63
2022/10/08 14:31:03;;;;;;;3.50;1.33;;;;;;;;;;8273437;28;20502;-63
2022/10/08 14:35:05;;;;;;;5.07;1.38;;;;;;;;;;8273348;28;20124;-63
2022/10/08 14:39:05;;;;;;;4.43;1.45;;;;;;;;;;8269962;28;20025;-64
2022/10/08 14:43:05;;;;;;;5.43;1.40;;;;;;;;;;8270806;28;20132;-63
2022/10/08 14:47:06;;;;;;;7.13;1.30;;;;;;;;;;8273727;28;20881;-63
2022/10/08 14:51:06;;;;;;;4.45;1.30;;;;;;;;;;8271969;28;20029;-63
2022/10/08 14:55:06;;;;;;;3.10;1.25;;;;;;;;;;8272501;28;20022;-62
2022/10/08 14:59:07;;;;;;;5.93;1.40;;;;;;;;;;8275657;28;20060;-63
2022/10/08 15:03:07;;;;;;;3.85;1.23;;;;;;;;;;8271578;28;20045;-62
2022/10/08 15:07:07;;;;;;;3.17;1.30;;;;;;;;;;8273967;28;20034;-63
2022/10/08 15:11:08;;;;;;;3.90;1.40;;;;;;;;;;8271721;28;20088;-62
2022/10/08 15:15:08;;;;;;;4.20;1.20;;;;;;;;;;8274790;28;20021;-63
2022/10/08 15:19:09;;;;;;;4.10;1.30;;;;;;;;;;8270538;28;20030;-62
2022/10/08 15:23:09;;;;;;;3.58;1.45;;;;;;;;;;8273408;28;21098;-63
2022/10/08 15:27:09;;;;;;;5.60;1.20;;;;;;;;;;8272022;28;20099;-63
2022/10/08 15:31:14;;;;;;;3.42;1.10;;;;;;;;;;8262927;28;20578;-63
2022/10/08 15:35:14;;;;;;;3.28;1.15;;;;;;;;;;8263566;28;20021;-62
2022/10/08 15:39:16;;;;;;;4.00;1.27;;;;;;;;;;8263777;28;20501;-63
2022/10/08 15:43:44;;;;;;;3.25;1.10;;;;;;;;;;8289261;28;20026;-62
2022/10/08 15:47:44;;;;;;;3.70;1.20;;;;;;;;;;8267801;28;20045;-62
2022/10/08 15:51:44;;;;;;;2.50;1.17;;;;;;;;;;8270183;28;20025;-62
2022/10/08 15:55:52;;;;;;;4.22;1.17;;;;;;;;;;8266803;28;20414;-63
2022/10/08 15:59:52;;;;;;;5.57;1.48;;;;;;;;;;8262553;28;20121;-62
2022/10/08 16:03:53;;;;;;;3.10;1.63;;;;;;;;;;8258522;28;20057;-63
2022/10/08 16:07:53;;;;;;;3.85;1.73;;;;;;;;;;8259267;28;20319;-62
2022/10/08 16:11:54;;;;;;;2.43;1.00;;;;;;;;;;8260112;28;20021;-62
2022/10/08 16:15:58;;;;;;;5.83;1.30;;;;;;;;;;8260925;28;20261;-62
2022/10/08 16:19:58;;;;;;;3.47;1.30;;;;;;;;;;8258329;28;20548;-62
2022/10/08 16:23:59;;;;;;;3.00;1.40;;;;;;;;;;8262244;28;20053;-62
2022/10/08 16:27:59;;;;;;;2.45;1.45;;;;;;;;;;8259717;28;20017;-62
2022/10/08 16:32:00;;;;;;;2.83;1.20;;;;;;;;;;8258615;28;20444;-62
2022/10/08 16:36:01;;;;;;;3.90;1.20;;;;;;;;;;8257503;28;20272;-62
2022/10/08 16:40:02;;;;;;;4.38;1.27;;;;;;;;;;8258634;28;20490;-63
2022/10/08 16:44:06;;;;;;;3.05;1.20;;;;;;;;;;8260300;28;20298;-62
2022/10/08 16:48:07;;;;;;;3.53;1.85;;;;;;;;;;8257463;28;20537;-62
2022/10/08 16:52:07;;;;;;;6.28;2.80;;;;;;;;;;8258931;28;20025;-62
2022/10/08 16:56:07;;;;;;;5.43;2.35;;;;;;;;;;8260257;28;20018;-62
2022/10/08 17:00:08;;;;;;;5.80;1.60;;;;;;;;;;8259616;28;20479;-63
2022/10/08 17:04:08;;;;;;;4.32;1.23;;;;;;;;;;8260649;28;20414;-62
2022/10/08 17:08:08;;;;;;;2.13;0.95;;;;;;;;;;8261267;28;20063;-63
2022/10/08 17:12:09;;;;;;;6.22;1.30;;;;;;;;;;8260971;28;20293;-62
2022/10/08 17:16:09;;;;;;;4.22;1.65;;;;;;;;;;8258697;28;20034;-62
2022/10/08 17:20:10;;;;;;;3.10;1.60;;;;;;;;;;8262021;28;20018;-62
2022/10/08 17:24:10;;;;;;;4.43;1.70;;;;;;;;;;8265772;28;20117;-62
2022/10/08 17:28:10;;;;;;;4.68;1.25;;;;;;;;;;8266267;28;20450;-62
2022/10/08 17:32:10;;;;;;;6.90;1.73;;;;;;;;;;8265075;28;20458;-62
2022/10/08 17:36:16;;;;;;;2.50;1.40;;;;;;;;;;8264570;28;20609;-62
2022/10/08 17:40:16;;;;;;;7.63;1.63;;;;;;;;;;8265669;28;20083;-62
2022/10/08 17:44:16;;;;;;;3.72;1.42;;;;;;;;;;8266492;28;20109;-62
2022/10/08 17:48:17;;;;;;;2.58;1.65;;;;;;;;;;8265514;28;20514;-62
2022/10/08 17:52:17;;;;;;;9.20;5.55;;;;;;;;;;8264536;28;20210;-63
2022/10/08 17:56:17;;;;;;;8.23;4.60;;;;;;;;;;8266771;28;20021;-62
2022/10/08 18:00:17;;;;;;;5.47;3.20;;;;;;;;;;8263419;28;20065;-62
2022/10/08 18:04:18;;;;;;;4.95;2.33;;;;;;;;;;8266348;28;20608;-63
2022/10/08 18:08:18;;;;;;;4.00;1.77;;;;;;;;;;8263350;28;20033;-62
2022/10/08 18:12:18;;;;;;;3.63;1.42;;;;;;;;;;8265470;28;20063;-62
2022/10/08 18:16:20;;;;;;;5.63;1.92;;;;;;;;;;8263957;28;20038;-63
2022/10/08 18:20:20;;;;;;;4.22;1.75;;;;;;;;;;8265568;28;20126;-62
2022/10/08 18:24:21;;;;;;;4.53;1.98;;;;;;;;;;8263875;28;20136;-62
2022/10/08 18:28:21;;;;;;;3.17;1.20;;;;;;;;;;8263284;28;20089;-62
2022/10/08 18:32:21;;;;;;;7.45;1.50;;;;;;;;;;8262158;28;20041;-62
2022/10/08 18:36:22;;;;;;;5.35;1.95;;;;;;;;;;8263941;28;20028;-63
2022/10/08 18:40:23;;;;;;;4.40;1.48;;;;;;;;;;8263290;28;20095;-63
2022/10/08 18:44:24;;;;;;;5.65;1.50;;;;;;;;;;8264172;28;20037;-62
2022/10/08 18:48:24;;;;;;;7.05;2.10;;;;;;;;;;8262632;28;20583;-62
2022/10/08 18:52:26;;;;;;;5.55;2.13;;;;;;;;;;8263708;28;20028;-62
2022/10/08 18:56:27;;;;;;;2.38;1.40;;;;;;;;;;8263715;28;20642;-62
2022/10/08 19:00:28;;;;;;;3.60;1.50;;;;;;;;;;8261921;28;20120;-62
2022/10/08 19:04:28;;;;;;;3.65;1.58;;;;;;;;;;8264004;28;20044;-62
2022/10/08 19:08:28;;;;;;;5.80;2.30;;;;;;;;;;8263755;28;20033;-62
2022/10/08 19:12:28;;;;;;;10.93;3.10;;;;;;;;;;8258711;28;20017;-62
2022/10/08 19:16:29;;;;;;;5.75;1.98;;;;;;;;;;8253486;28;20065;-62
2022/10/08 19:20:29;;;;;;;5.97;1.65;;;;;;;;;;8260336;28;20059;-62
2022/10/08 19:24:29;;;;;;;3.83;1.80;;;;;;;;;;8254914;28;20520;-62
2022/10/08 19:28:35;;;;;;;4.32;2.20;;;;;;;;;;8264574;28;20516;-62
2022/10/08 19:32:35;;;;;;;4.55;1.80;;;;;;;;;;8261061;28;20042;-62
2022/10/08 19:36:36;;;;;;;7.88;2.50;;;;;;;;;;8263085;28;20022;-62
2022/10/08 19:40:37;;;;;;;5.05;1.80;;;;;;;;;;8262887;28;20025;-62
2022/10/08 19:44:37;;;;;;;3.70;1.85;;;;;;;;;;8262712;28;20133;-62
2022/10/08 19:48:37;;;;;;;5.30;2.20;;;;;;;;;;8260846;28;20034;-62
2022/10/08 19:52:37;;;;;;;2.97;1.70;;;;;;;;;;8261933;28;20151;-62
2022/10/08 19:56:38;;;;;;;2.67;1.42;;;;;;;;;;8265851;28;20280;-62
2022/10/08 20:00:38;;;;;;;4.53;2.40;;;;;;;;;;8262125;28;20029;-62
2022/10/08 20:04:38;;;;;;;6.43;3.05;;;;;;;;;;8260778;28;20119;-62
2022/10/08 20:08:38;;;;;;;8.82;3.47;;;;;;;;;;8263241;28;20033;-62
2022/10/08 20:12:38;;;;;;;8.15;3.80;;;;;;;;;;8262163;28;20568;-62
2022/10/08 20:16:40;;;;;;;15.45;7.40;;;;;;;;;;8260951;28;20033;-62
2022/10/08 20:20:41;;;;;;;13.88;6.68;;;;;;;;;;8261234;28;20235;-62
2022/10/08 20:24:41;;;;;;;6.43;3.80;;;;;;;;;;8260503;28;20021;-62
2022/10/08 20:28:42;;;;;;;6.47;2.75;;;;;;;;;;8258399;28;20132;-62
2022/10/08 20:32:42;;;;;;;5.57;2.15;;;;;;;;;;8260888;28;20399;-62
2022/10/08 20:36:44;;;;;;;5.38;2.22;;;;;;;;;;8259289;28;20080;-62
2022/10/08 20:40:44;;;;;;;3.13;1.70;;;;;;;;;;8259775;28;20025;-62
2022/10/08 20:44:45;;;;;;;6.15;2.17;;;;;;;;;;8256279;28;20479;-62
2022/10/08 20:48:45;;;;;;;4.03;2.40;;;;;;;;;;8258617;28;20049;-62
2022/10/08 20:52:47;;;;;;;5.10;2.60;;;;;;;;;;8259093;28;20021;-63
2022/10/08 20:56:47;;;;;;;6.28;2.25;;;;;;;;;;8259435;28;20669;-62
2022/10/08 21:00:47;;;;;;;5.05;2.30;;;;;;;;;;8257649;28;20036;-62
2022/10/08 21:04:47;;;;;;;3.30;2.13;;;;;;;;;;8259862;28;20029;-62
2022/10/08 21:08:49;;;;;;;6.75;2.60;;;;;;;;;;8257448;28;20052;-62
2022/10/08 21:12:49;;;;;;;6.47;1.63;;;;;;;;;;8259838;28;20029;-62
2022/10/08 21:16:49;;;;;;;2.17;1.60;;;;;;;;;;8259822;28;20034;-62
2022/10/08 21:20:52;;;;;;;4.85;1.90;;;;;;;;;;8258694;28;20655;-62
2022/10/08 21:24:52;;;;;;;3.97;2.00;;;;;;;;;;8258744;28;20591;-62
2022/10/08 21:28:59;;;;;;;6.68;1.67;;;;;;;;;;8260999;28;20040;-62
2022/10/08 21:32:59;;;;;;;3.22;1.55;;;;;;;;;;8258878;28;20801;-62
2022/10/08 21:37:00;;;;;;;4.78;1.70;;;;;;;;;;8259857;28;20335;-62
2022/10/08 21:41:04;;;;;;;5.15;2.05;;;;;;;;;;8259491;28;20021;-62
2022/10/08 21:45:05;;;;;;;2.22;2.00;;;;;;;;;;8258518;28;20054;-62
2022/10/08 21:49:06;;;;;;;8.70;1.83;;;;;;;;;;8259654;28;20635;-62
2022/10/08 21:53:06;;;;;;;2.67;1.67;;;;;;;;;;8260401;28;20045;-62
2022/10/08 21:57:07;;;;;;;3.10;1.63;;;;;;;;;;8261534;28;20091;-62
2022/10/08 22:01:16;;;;;;;6.43;1.42;;;;;;;;;;8262560;28;20962;-62
2022/10/08 22:05:17;;;;;;;2.15;1.20;;;;;;;;;;8260385;28;20578;-62
2022/10/08 22:09:21;;;;;;;5.53;1.58;;;;;;;;;;8265847;28;20152;-62
2022/10/08 22:13:21;;;;;;;;;;;;;;;;;;8266603;28;20032;-63
2022/10/08 22:17:21;;;;;;;2.50;1.08;;;;;;;;;;8267184;28;20020;-62
2022/10/08 22:21:22;;;;;;;2.00;1.10;;;;;;;;;;8264740;28;20440;-62
2022/10/08 22:25:22;;;;;;;6.63;1.42;;;;;;;;;;8267588;28;20052;-62
2022/10/08 22:29:22;;;;;;;3.42;1.85;;;;;;;;;;8267394;28;20040;-62
2022/10/08 22:33:22;;;;;;;1.20;1.10;;;;;;;;;;8264488;28;20107;-62
2022/10/08 22:37:22;;;;;;;5.05;1.20;;;;;;;;;;8265939;28;20022;-62
2022/10/08 22:41:24;;;;;;;2.63;1.17;;;;;;;;;;8268680;28;20025;-62
2022/10/08 22:45:24;;;;;;;5.53;1.20;;;;;;;;;;8263917;28;20083;-63
2022/10/08 22:49:24;;;;;;;3.60;1.20;;;;;;;;;;8264194;28;20378;-62
2022/10/08 22:53:25;;;;;;;3.42;1.23;;;;;;;;;;8263573;28;20480;-62
2022/10/08 22:57:25;;;;;;;2.38;1.33;;;;;;;;;;8266677;28;20101;-62
2022/10/08 23:01:26;;;;;;;2.92;1.40;;;;;;;;;;8262145;28;20372;-62
2022/10/08 23:05:26;;;;;;;3.10;1.13;;;;;;;;;;8265031;28;20026;-62
2022/10/08 23:09:26;;;;;;;1.95;1.30;;;;;;;;;;8264869;28;20033;-62
2022/10/08 23:13:27;;;;;;;3.38;1.23;;;;;;;;;;8265529;28;20017;-62
2022/10/08 23:17:28;;;;;;;2.67;1.23;;;;;;;;;;8261781;28;20034;-62
2022/10/08 23:21:28;;;;;;;1.23;0.93;;;;;;;;;;8264494;28;20148;-62
2022/10/08 23:25:28;;;;;;;2.03;1.60;;;;;;;;;;8263431;28;20284;-62
2022/10/08 23:29:29;;;;;;;2.05;1.10;;;;;;;;;;8263836;28;20033;-62
2022/10/08 23:33:29;;;;;;;3.35;1.08;;;;;;;;;;8262793;28;20076;-62
2022/10/08 23:37:29;;;;;;;4.00;1.40;;;;;;;;;;8263664;28;20130;-62
2022/10/08 23:41:29;;;;;;;3.90;1.15;;;;;;;;;;8262744;28;20032;-62
2022/10/08 23:45:29;;;;;;;4.90;1.00;;;;;;;;;;8263485;28;20040;-62
2022/10/08 23:49:29;;;;;;;2.05;1.10;;;;;;;;;;8263243;28;20060;-62
2022/10/08 23:53:30;;;;;;;2.38;1.08;;;;;;;;;;8261783;28;20022;-62
2022/10/08 23:57:30;;;;;;;2.05;0.90;;;;;;;;;;8263640;28;20061;-62
